createdAt,value
2018-12-13T00:03:55.581Z,15.93
2018-12-13T00:09:00.381Z,13.27
2018-12-13T00:14:04.186Z,13.43
2018-12-13T00:19:08.052Z,14.17
2018-12-13T00:24:12.660Z,12.57
2018-12-13T00:40:22.823Z,13.60
2018-12-13T00:45:27.156Z,14.97
2018-12-13T00:50:31.652Z,14.97
2018-12-13T00:55:35.515Z,12.93
2018-12-13T01:00:39.416Z,13.67
2018-12-13T01:06:05.999Z,13.87
2018-12-13T01:11:10.539Z,13.90
2018-12-13T01:16:19.539Z,14.03
2018-12-13T01:21:24.089Z,13.53
2018-12-13T01:26:28.308Z,13.67
2018-12-13T01:31:32.829Z,12.63
2018-12-13T01:36:37.273Z,12.93
2018-12-13T01:41:41.072Z,14.70
2018-12-13T01:46:44.966Z,13.17
2018-12-13T01:52:01.581Z,15.70
2018-12-13T01:57:05.504Z,12.63
2018-12-13T02:02:09.860Z,12.90
2018-12-13T02:07:13.962Z,15.50
2018-12-13T02:18:07.092Z,12.87
2018-12-13T02:23:11.235Z,12.27
2018-12-13T02:28:14.919Z,10.80
2018-12-13T02:33:19.805Z,10.87
2018-12-13T02:38:24.689Z,13.90
2018-12-13T02:43:28.771Z,12.27
2018-12-13T02:48:33.009Z,12.93
2018-12-13T02:53:37.561Z,10.80
2018-12-13T02:58:41.142Z,12.50
2018-12-13T03:03:45.779Z,11.10
2018-12-13T03:08:49.821Z,10.53
2018-12-13T03:24:49.500Z,13.77
2018-12-13T03:29:53.064Z,10.23
2018-12-13T03:34:56.692Z,11.97
2018-12-13T03:40:01.225Z,14.83
2018-12-13T03:45:05.621Z,14.97
2018-12-13T03:50:10.442Z,12.63
2018-12-13T03:55:14.058Z,12.60
2018-12-13T04:00:17.668Z,12.80
2018-12-13T04:05:21.591Z,12.37
2018-12-13T04:10:25.567Z,12.30
2018-12-13T04:15:29.134Z,11.33
2018-12-13T04:20:33.621Z,12.50
2018-12-13T04:25:37.203Z,11.37
2018-12-13T04:30:40.930Z,13.27
2018-12-13T04:35:44.583Z,12.87
2018-12-13T04:40:49.223Z,12.37
2018-12-13T04:45:53.478Z,11.53
2018-12-13T04:50:57.105Z,11.33
2018-12-13T04:56:00.928Z,11.47
2018-12-13T05:01:04.563Z,10.27
2018-12-13T05:06:08.442Z,11.30
2018-12-13T05:11:12.347Z,9.87
2018-12-13T05:16:16.225Z,12.97
2018-12-13T05:21:20.124Z,10.63
2018-12-13T05:31:59.820Z,11.90
2018-12-13T05:37:04.301Z,10.50
2018-12-13T05:42:08.808Z,9.87
2018-12-13T05:47:12.502Z,9.53
2018-12-13T05:52:16.106Z,9.77
2018-12-13T05:57:37.041Z,9.87
2018-12-13T06:02:40.570Z,10.73
2018-12-13T06:07:44.453Z,10.07
2018-12-13T06:12:56.358Z,10.53
2018-12-13T06:18:06.653Z,10.93
2018-12-13T06:23:06.576Z,9.83
2018-12-13T06:28:10.930Z,9.43
2018-12-13T06:39:00.800Z,10.90
2018-12-13T06:44:04.921Z,10.93
2018-12-13T06:49:08.560Z,10.83
2018-12-13T06:54:12.119Z,11.30
2018-12-13T07:05:01.087Z,11.23
2018-12-13T07:10:05.264Z,13.63
2018-12-13T07:15:10.372Z,11.93
2018-12-13T07:20:14.506Z,12.57
2018-12-13T07:25:18.366Z,12.60
2018-12-13T07:30:46.654Z,12.13
2018-12-13T07:35:50.316Z,13.93
2018-12-13T07:41:00.662Z,14.43
2018-12-13T07:46:04.512Z,13.93
2018-12-13T07:51:16.932Z,13.33
2018-12-13T07:56:20.804Z,13.70
2018-12-13T08:01:24.291Z,12.73
2018-12-13T08:06:27.988Z,14.47
2018-12-13T08:11:32.032Z,14.13
2018-12-13T08:16:35.924Z,13.73
2018-12-13T08:21:39.488Z,16.00
2018-12-13T08:26:43.574Z,16.00
2018-12-13T08:31:47.623Z,15.87
2018-12-13T08:36:51.947Z,16.03
2018-12-13T08:41:56.017Z,17.57
2018-12-13T08:46:59.862Z,17.70
2018-12-13T08:52:03.723Z,16.53
2018-12-13T08:57:07.742Z,17.13
2018-12-13T09:02:11.397Z,16.93
2018-12-13T09:07:15.694Z,16.77
2018-12-13T09:12:19.304Z,18.87
2018-12-13T09:17:24.066Z,16.93
2018-12-13T09:22:28.759Z,17.23
2018-12-13T09:27:33.002Z,17.37
2018-12-13T09:32:37.371Z,16.93
2018-12-13T09:37:47.260Z,18.30
2018-12-13T09:42:49.440Z,16.30
2018-12-13T09:48:12.944Z,16.23
2018-12-13T09:53:17.675Z,16.57
2018-12-13T09:58:21.275Z,16.43
2018-12-13T10:03:25.244Z,18.63
2018-12-13T10:08:29.099Z,19.20
2018-12-13T10:13:33.342Z,16.73
2018-12-13T10:18:51.749Z,16.90
2018-12-13T10:23:55.336Z,13.17
2018-12-13T10:28:58.958Z,16.37
2018-12-13T10:34:02.803Z,15.80
2018-12-13T10:39:09.294Z,13.27
2018-12-13T10:44:23.980Z,14.67
2018-12-13T10:49:28.127Z,14.00
2018-12-13T10:54:31.849Z,13.90
2018-12-13T10:59:35.484Z,14.80
2018-12-13T11:04:39.052Z,12.90
2018-12-13T11:09:43.520Z,13.60
2018-12-13T11:14:47.354Z,14.33
2018-12-13T11:30:47.662Z,14.00
2018-12-13T11:35:51.734Z,16.37
2018-12-13T11:40:55.892Z,13.60
2018-12-13T11:45:59.778Z,12.07
2018-12-13T11:51:04.109Z,15.60
2018-12-13T11:56:08.112Z,13.20
2018-12-13T12:01:12.537Z,12.73
2018-12-13T12:06:17.568Z,13.10
2018-12-13T12:11:22.063Z,12.77
2018-12-13T12:16:26.259Z,14.40
2018-12-13T12:21:48.596Z,14.80
2018-12-13T12:26:53.768Z,15.37
2018-12-13T12:31:57.868Z,13.27
2018-12-13T12:37:01.508Z,13.67
2018-12-13T12:42:05.840Z,14.10
2018-12-13T12:47:10.998Z,13.90
2018-12-13T12:52:15.329Z,15.50
2018-12-13T12:57:19.403Z,16.40
2018-12-13T13:02:23.260Z,15.33
2018-12-13T13:07:27.131Z,14.07
2018-12-13T13:12:31.195Z,14.33
2018-12-13T13:17:35.320Z,14.37
2018-12-13T13:22:39.727Z,13.03
2018-12-13T13:27:44.184Z,13.77
2018-12-13T13:32:47.821Z,15.03
2018-12-13T13:37:52.448Z,14.80
2018-12-13T13:42:56.829Z,14.57
2018-12-13T13:48:01.051Z,13.73
2018-12-13T13:53:21.440Z,13.73
2018-12-13T13:58:25.707Z,12.63
2018-12-13T14:03:30.212Z,14.17
2018-12-13T14:08:34.074Z,12.20
2018-12-13T14:13:38.172Z,13.47
2018-12-13T14:18:42.612Z,14.27
2018-12-13T14:23:46.244Z,13.73
2018-12-13T14:28:50.277Z,17.13
2018-12-13T14:33:53.959Z,16.10
2018-12-13T14:38:57.843Z,16.33
2018-12-13T14:44:01.815Z,15.77
2018-12-13T14:49:06.031Z,16.57
2018-12-13T15:10:33.576Z,14.53
2018-12-13T15:15:37.583Z,13.87
2018-12-13T15:20:41.185Z,15.03
2018-12-13T15:25:44.781Z,14.23
2018-12-13T15:30:48.783Z,14.00
2018-12-13T15:35:52.308Z,13.50
2018-12-13T15:40:56.215Z,13.03
2018-12-13T15:46:01.619Z,12.60
2018-12-13T15:51:06.787Z,13.30
2018-12-13T15:56:10.826Z,14.10
2018-12-13T16:01:38.522Z,14.57
2018-12-13T16:06:42.082Z,11.77
2018-12-13T16:11:45.788Z,14.50
2018-12-13T16:16:49.722Z,12.00
2018-12-13T16:21:53.240Z,14.70
2018-12-13T16:32:25.229Z,12.00
2018-12-13T16:37:28.897Z,13.93
2018-12-13T16:42:33.727Z,12.47
2018-12-13T16:47:38.364Z,10.80
2018-12-13T16:52:42.637Z,13.63
2018-12-13T16:57:49.304Z,12.87
2018-12-13T17:02:52.939Z,12.40
2018-12-13T17:07:56.816Z,11.50
2018-12-13T17:13:01.735Z,12.27
2018-12-13T17:18:06.437Z,10.50
2018-12-13T17:23:10.465Z,11.60
2018-12-13T17:28:14.344Z,12.00
2018-12-13T17:33:17.891Z,11.17
2018-12-13T17:38:22.633Z,10.33
2018-12-13T17:43:26.450Z,8.80
2018-12-13T17:48:30.591Z,9.77
2018-12-13T17:59:05.800Z,10.77
2018-12-13T18:04:10.127Z,11.23
2018-12-13T18:09:14.200Z,9.67
2018-12-13T18:14:18.763Z,10.47
2018-12-13T18:19:22.647Z,11.60
2018-12-13T18:29:54.452Z,14.93
2018-12-13T18:34:58.356Z,10.73
2018-12-13T18:40:01.918Z,11.20
2018-12-13T18:45:08.849Z,12.13
2018-12-13T18:50:13.001Z,12.17
2018-12-13T18:55:17.303Z,11.90
2018-12-13T19:00:21.224Z,12.03
2018-12-13T19:05:24.811Z,12.13
2018-12-13T19:10:28.360Z,14.70
2018-12-13T19:21:04.437Z,13.30
2018-12-13T19:26:07.980Z,12.97
2018-12-13T19:31:11.963Z,14.03
2018-12-13T19:41:50.473Z,13.93
2018-12-13T19:46:54.512Z,15.17
2018-12-13T19:51:58.123Z,12.93
2018-12-13T19:57:02.022Z,12.97
2018-12-13T20:07:34.001Z,15.37
2018-12-13T20:12:37.612Z,12.83
2018-12-13T20:17:41.798Z,14.63
2018-12-13T20:22:45.929Z,14.70
2018-12-13T20:27:49.798Z,13.50
2018-12-13T20:32:54.041Z,15.37
2018-12-13T20:37:58.541Z,14.13
2018-12-13T20:43:02.132Z,15.07
2018-12-13T20:48:06.888Z,13.77
2018-12-13T20:53:11.004Z,13.90
2018-12-13T20:58:14.919Z,13.33
2018-12-13T21:03:19.454Z,15.77
2018-12-13T21:08:23.320Z,14.53
2018-12-13T21:13:27.939Z,13.60
2018-12-13T21:18:31.896Z,15.87
2018-12-13T21:23:36.096Z,14.33
2018-12-13T21:28:40.968Z,15.70
2018-12-13T21:33:45.592Z,14.07
2018-12-13T21:38:53.126Z,15.87
2018-12-13T22:00:20.778Z,18.50
2018-12-13T22:05:25.119Z,15.77
2018-12-13T22:15:57.412Z,15.83
2018-12-13T22:21:01.533Z,15.93
2018-12-13T22:26:05.169Z,16.83
2018-12-13T22:36:58.644Z,15.40
2018-12-13T22:42:03.303Z,15.23
2018-12-13T22:47:07.557Z,17.93
2018-12-13T22:52:12.769Z,16.77
2018-12-13T22:57:16.309Z,14.57
2018-12-13T23:02:23.077Z,15.83
2018-12-13T23:07:27.257Z,14.83
2018-12-13T23:12:30.864Z,15.40
2018-12-13T23:17:35.221Z,15.93
2018-12-13T23:22:38.993Z,15.33
2018-12-13T23:27:43.709Z,15.50
2018-12-13T23:32:48.029Z,14.33
2018-12-13T23:37:53.060Z,16.07
2018-12-13T23:42:57.412Z,17.43
2018-12-13T23:48:01.445Z,13.93
2018-12-13T23:53:05.601Z,14.87
2018-12-13T23:58:09.896Z,16.63
